createdAt,value
2023-12-09T00:01:02.187Z,26.13
2023-12-09T00:03:29.482Z,26.13
2023-12-09T00:05:56.821Z,36.20
2023-12-09T00:08:24.195Z,29.70
2023-12-09T00:10:51.394Z,28.00
2023-12-09T00:13:18.529Z,31.50
2023-12-09T00:15:45.728Z,34.78
2023-12-09T00:18:13.115Z,36.45
2023-12-09T00:20:40.394Z,35.03
2023-12-09T00:23:08.770Z,54.28
2023-12-09T00:25:36.164Z,28.38
2023-12-09T00:28:03.693Z,28.13
2023-12-09T00:30:30.876Z,62.20
2023-12-09T00:32:58.228Z,117.70
2023-12-09T00:35:25.421Z,153.35
2023-12-09T00:37:52.593Z,73.43
2023-12-09T00:40:20.144Z,83.13
2023-12-09T00:42:50.353Z,346.02
2023-12-09T00:45:17.539Z,200.82
2023-12-09T00:47:45.065Z,106.10
2023-12-09T00:50:12.326Z,257.30
2023-12-09T00:52:39.511Z,255.25
2023-12-09T00:55:06.925Z,70.03
2023-12-09T00:57:34.144Z,151.00
2023-12-09T01:00:01.384Z,234.48
2023-12-09T01:02:29.533Z,117.57
2023-12-09T01:04:56.966Z,164.48
2023-12-09T01:07:24.211Z,137.35
2023-12-09T01:09:51.398Z,190.75
2023-12-09T01:12:18.604Z,180.60
2023-12-09T01:14:46.015Z,225.93
2023-12-09T01:17:13.205Z,313.02
2023-12-09T01:19:40.326Z,178.10
2023-12-09T01:22:07.548Z,129.30
2023-12-09T01:24:34.914Z,263.30
2023-12-09T01:27:02.135Z,319.77
2023-12-09T01:29:29.242Z,229.77
2023-12-09T01:31:56.430Z,152.15
2023-12-09T01:34:23.696Z,489.10
2023-12-09T01:36:50.841Z,97.78
2023-12-09T01:39:18.139Z,142.60
2023-12-09T01:41:45.269Z,214.55
2023-12-09T01:44:12.489Z,172.93
2023-12-09T01:46:39.789Z,295.40
2023-12-09T01:49:07.748Z,291.65
2023-12-09T01:51:36.099Z,135.02
2023-12-09T01:54:03.734Z,50.40
2023-12-09T01:56:30.890Z,55.50
2023-12-09T01:58:58.065Z,48.90
2023-12-09T02:01:25.530Z,46.78
2023-12-09T02:03:53.243Z,36.30
2023-12-09T02:06:21.192Z,44.95
2023-12-09T02:08:48.404Z,34.72
2023-12-09T02:11:34.551Z,38.47
2023-12-09T02:14:08.391Z,38.83
2023-12-09T02:16:49.958Z,39.85
2023-12-09T02:19:18.947Z,37.83
2023-12-09T02:22:01.568Z,39.60
2023-12-09T02:24:29.500Z,34.00
2023-12-09T02:27:00.126Z,37.53
2023-12-09T02:29:27.606Z,36.90
2023-12-09T02:31:58.685Z,38.08
2023-12-09T02:34:26.784Z,33.45
2023-12-09T02:36:54.685Z,35.00
2023-12-09T02:39:22.202Z,34.30
2023-12-09T02:41:49.876Z,41.80
2023-12-09T02:44:17.099Z,38.47
2023-12-09T02:46:44.189Z,37.45
2023-12-09T02:49:12.192Z,37.25
2023-12-09T02:51:39.412Z,38.00
2023-12-09T02:54:06.553Z,35.63
2023-12-09T02:56:33.717Z,42.30
2023-12-09T02:59:00.908Z,43.10
2023-12-09T03:01:28.148Z,41.90
2023-12-09T03:03:55.471Z,47.50
2023-12-09T03:06:22.711Z,45.55
2023-12-09T03:08:49.881Z,42.97
2023-12-09T03:11:17.065Z,38.22
2023-12-09T03:13:44.285Z,49.45
2023-12-09T03:16:11.406Z,40.78
2023-12-09T03:18:38.662Z,45.83
2023-12-09T03:21:06.121Z,36.35
2023-12-09T03:23:33.290Z,48.83
2023-12-09T03:26:00.417Z,39.58
2023-12-09T03:28:27.586Z,48.38
2023-12-09T03:30:54.740Z,43.65
2023-12-09T03:33:21.950Z,42.97
2023-12-09T03:35:49.148Z,38.03
2023-12-09T03:38:16.279Z,47.47
2023-12-09T03:40:43.414Z,37.67
2023-12-09T03:43:10.592Z,34.90
2023-12-09T03:45:37.819Z,34.33
2023-12-09T03:48:05.193Z,40.20
2023-12-09T03:50:32.491Z,35.58
2023-12-09T03:52:59.668Z,32.40
2023-12-09T03:55:26.778Z,37.20
2023-12-09T03:57:54.322Z,38.90
2023-12-09T04:00:21.547Z,36.45
2023-12-09T04:02:48.723Z,36.03
2023-12-09T04:05:15.936Z,43.00
2023-12-09T04:07:43.162Z,29.33
2023-12-09T04:10:10.455Z,31.45
2023-12-09T04:12:37.800Z,30.67
2023-12-09T04:15:05.277Z,32.45
2023-12-09T04:17:32.480Z,36.17
2023-12-09T04:19:59.750Z,32.13
2023-12-09T04:22:27.194Z,29.92
2023-12-09T04:24:54.573Z,37.88
2023-12-09T04:27:21.784Z,61.10
2023-12-09T04:29:50.178Z,34.60
2023-12-09T04:32:16.884Z,26.92
2023-12-09T04:34:43.892Z,23.23
2023-12-09T04:37:10.629Z,29.02
2023-12-09T04:39:37.439Z,24.50
2023-12-09T04:42:05.428Z,28.05
2023-12-09T04:44:32.267Z,22.20
2023-12-09T04:46:59.050Z,36.38
2023-12-09T04:49:25.946Z,37.03
2023-12-09T04:51:52.726Z,42.05
2023-12-09T04:54:19.621Z,68.20
2023-12-09T04:56:46.374Z,60.17
2023-12-09T04:59:13.162Z,241.40
2023-12-09T05:01:39.902Z,101.30
2023-12-09T05:04:07.169Z,68.60
2023-12-09T05:06:34.068Z,56.20
2023-12-09T05:09:00.889Z,44.03
2023-12-09T05:11:27.783Z,221.50
2023-12-09T05:13:54.561Z,50.72
2023-12-09T05:16:21.334Z,264.13
2023-12-09T05:18:48.494Z,49.22
2023-12-09T05:21:16.550Z,101.80
2023-12-09T05:23:43.327Z,177.48
2023-12-09T05:26:10.190Z,122.68
2023-12-09T05:28:36.925Z,152.82
2023-12-09T05:31:03.858Z,109.85
2023-12-09T05:33:30.767Z,32.65
2023-12-09T05:35:57.721Z,40.55
2023-12-09T05:38:24.469Z,41.30
2023-12-09T05:40:51.251Z,37.63
2023-12-09T05:43:17.943Z,31.58
2023-12-09T05:45:44.691Z,37.30
2023-12-09T05:48:11.737Z,35.63
2023-12-09T05:50:38.772Z,43.75
2023-12-09T05:53:05.524Z,36.58
2023-12-09T05:55:32.314Z,48.90
2023-12-09T05:57:59.043Z,33.85
2023-12-09T06:00:25.881Z,34.47
2023-12-09T06:02:52.850Z,29.40
2023-12-09T06:05:19.660Z,26.05
2023-12-09T06:07:46.408Z,32.80
2023-12-09T06:10:14.583Z,24.95
2023-12-09T06:12:42.270Z,29.20
2023-12-09T06:15:09.356Z,28.33
2023-12-09T06:17:36.186Z,28.73
2023-12-09T06:20:03.527Z,31.90
2023-12-09T06:22:30.739Z,25.27
2023-12-09T06:24:57.452Z,28.48
2023-12-09T06:27:25.112Z,22.00
2023-12-09T06:29:52.242Z,23.38
2023-12-09T06:32:19.018Z,23.08
2023-12-09T06:34:45.839Z,22.33
2023-12-09T06:37:12.710Z,18.08
2023-12-09T06:39:39.525Z,23.08
2023-12-09T06:42:07.070Z,24.45
2023-12-09T06:44:33.901Z,21.63
2023-12-09T06:47:00.678Z,25.05
2023-12-09T06:49:27.497Z,20.02
2023-12-09T06:51:54.438Z,23.95
2023-12-09T06:54:21.201Z,18.90
2023-12-09T06:56:47.948Z,22.33
2023-12-09T06:59:14.692Z,23.33
2023-12-09T07:01:44.189Z,20.95
2023-12-09T07:04:13.271Z,19.45
2023-12-09T07:06:40.775Z,23.90
2023-12-09T07:09:07.678Z,17.42
2023-12-09T07:11:34.540Z,17.65
2023-12-09T07:14:01.297Z,20.52
2023-12-09T07:16:28.092Z,19.80
2023-12-09T07:19:00.313Z,19.17
2023-12-09T07:23:56.737Z,40.22
2023-12-09T07:26:23.691Z,61.75
2023-12-09T07:28:50.527Z,58.40
2023-12-09T07:31:17.435Z,34.22
2023-12-09T07:33:44.610Z,29.40
2023-12-09T07:36:11.875Z,18.33
2023-12-09T07:38:38.717Z,13.77
2023-12-09T07:41:05.452Z,15.98
2023-12-09T07:43:33.044Z,19.02
2023-12-09T07:45:59.899Z,23.02
2023-12-09T07:48:27.134Z,24.10
2023-12-09T07:50:54.094Z,19.55
2023-12-09T07:53:20.920Z,22.30
2023-12-09T07:55:47.717Z,21.83
2023-12-09T07:58:14.428Z,23.25
2023-12-09T08:00:41.332Z,20.42
2023-12-09T08:03:08.279Z,25.17
2023-12-09T08:05:36.136Z,21.65
2023-12-09T08:08:04.077Z,15.32
2023-12-09T08:10:30.788Z,23.48
2023-12-09T08:12:57.698Z,38.00
2023-12-09T08:15:24.876Z,23.60
2023-12-09T08:17:51.763Z,29.92
2023-12-09T08:20:18.534Z,39.53
2023-12-09T08:22:45.273Z,45.67
2023-12-09T08:25:12.100Z,32.05
2023-12-09T08:27:41.893Z,14.65
2023-12-09T08:30:13.403Z,21.88
2023-12-09T08:32:42.416Z,25.55
2023-12-09T08:35:10.741Z,29.88
2023-12-09T08:37:38.620Z,22.48
2023-12-09T08:40:12.117Z,52.25
2023-12-09T08:42:43.932Z,47.88
2023-12-09T08:45:12.719Z,49.90
2023-12-09T08:47:42.874Z,33.03
2023-12-09T08:50:21.961Z,21.65
2023-12-09T08:52:55.236Z,21.25
2023-12-09T08:55:22.725Z,14.73
2023-12-09T08:57:50.476Z,16.10
2023-12-09T09:00:21.617Z,17.50
2023-12-09T09:02:49.026Z,16.60
2023-12-09T09:05:16.254Z,12.45
2023-12-09T09:07:46.527Z,13.35
2023-12-09T09:10:13.409Z,13.73
2023-12-09T09:12:40.255Z,10.02
2023-12-09T09:15:09.153Z,9.00
2023-12-09T09:17:36.860Z,13.93
2023-12-09T09:20:06.636Z,7.70
2023-12-09T09:22:34.231Z,4.20
2023-12-09T09:25:00.988Z,6.55
2023-12-09T09:27:27.836Z,9.05
2023-12-09T09:29:54.753Z,7.00
2023-12-09T09:32:22.571Z,8.35
2023-12-09T09:34:49.914Z,8.65
2023-12-09T09:37:16.965Z,8.57
2023-12-09T09:39:43.932Z,7.47
2023-12-09T09:42:22.872Z,6.47
2023-12-09T09:45:06.596Z,11.80
2023-12-09T09:47:38.857Z,10.18
2023-12-09T09:50:07.760Z,11.65
2023-12-09T09:52:38.817Z,10.52
2023-12-09T09:55:09.713Z,11.23
2023-12-09T09:57:36.506Z,8.15
2023-12-09T10:00:13.695Z,7.90
2023-12-09T10:02:45.314Z,8.35
2023-12-09T10:05:14.115Z,8.35
2023-12-09T10:07:41.513Z,9.40
2023-12-09T10:10:08.928Z,5.60
2023-12-09T10:12:36.798Z,9.60
2023-12-09T10:15:05.077Z,6.25
2023-12-09T10:17:32.760Z,11.27
2023-12-09T10:20:00.589Z,6.57
2023-12-09T10:22:29.264Z,7.18
2023-12-09T10:24:56.540Z,6.78
2023-12-09T10:27:25.446Z,8.73
2023-12-09T10:29:57.468Z,7.18
2023-12-09T10:32:26.303Z,11.45
2023-12-09T10:34:54.045Z,11.40
2023-12-09T10:37:22.147Z,8.23
2023-12-09T10:39:51.128Z,10.38
2023-12-09T10:42:17.965Z,9.70
2023-12-09T10:44:44.774Z,6.43
2023-12-09T10:47:11.610Z,8.45
2023-12-09T10:49:38.496Z,6.88
2023-12-09T10:52:05.883Z,7.15
2023-12-09T10:54:32.831Z,8.25
2023-12-09T10:57:00.171Z,9.68
2023-12-09T10:59:30.537Z,12.02
2023-12-09T11:01:59.178Z,7.32
2023-12-09T11:04:26.504Z,7.65
2023-12-09T11:06:56.825Z,10.02
2023-12-09T11:09:24.156Z,8.68
2023-12-09T11:11:51.035Z,6.78
2023-12-09T11:14:17.913Z,6.35
2023-12-09T11:16:45.722Z,6.05
2023-12-09T11:19:17.465Z,4.65
2023-12-09T11:21:47.330Z,5.05
2023-12-09T11:24:19.964Z,6.45
2023-12-09T11:29:18.370Z,7.10
2023-12-09T11:31:50.184Z,7.90
2023-12-09T11:34:21.986Z,6.07
2023-12-09T11:36:53.127Z,7.10
2023-12-09T11:39:22.099Z,6.25
2023-12-09T11:41:50.209Z,7.20
2023-12-09T11:44:17.578Z,7.60
2023-12-09T11:46:44.619Z,5.30
2023-12-09T11:49:11.763Z,6.22
2023-12-09T11:51:40.128Z,4.43
2023-12-09T11:54:09.474Z,3.88
2023-12-09T11:56:38.780Z,6.82
2023-12-09T11:59:06.498Z,5.05
2023-12-09T12:01:35.103Z,3.42
2023-12-09T12:04:02.227Z,4.65
2023-12-09T12:06:29.490Z,5.90
2023-12-09T12:08:56.341Z,5.13
2023-12-09T12:11:25.559Z,6.97
2023-12-09T12:13:54.019Z,5.55
2023-12-09T12:16:21.892Z,5.22
2023-12-09T12:18:49.542Z,4.28
2023-12-09T12:21:16.983Z,5.28
2023-12-09T12:23:44.437Z,4.93
2023-12-09T12:26:12.708Z,5.00
2023-12-09T12:28:39.913Z,4.38
2023-12-09T12:31:08.001Z,3.78
2023-12-09T12:33:35.999Z,6.50
2023-12-09T12:36:03.317Z,5.35
2023-12-09T12:38:30.263Z,5.68
2023-12-09T12:41:00.596Z,3.05
2023-12-09T12:43:32.623Z,2.95
2023-12-09T12:46:01.087Z,2.40
2023-12-09T12:48:28.788Z,5.68
2023-12-09T12:50:56.085Z,3.88
2023-12-09T12:53:24.755Z,4.20
2023-12-09T12:55:53.712Z,4.38
2023-12-09T12:58:20.673Z,3.90
2023-12-09T13:00:52.897Z,2.90
2023-12-09T13:03:20.049Z,2.85
2023-12-09T13:05:47.105Z,3.47
2023-12-09T13:08:14.387Z,2.75
2023-12-09T13:10:41.229Z,4.72
2023-12-09T13:13:08.017Z,9.32
2023-12-09T13:15:35.786Z,11.15
2023-12-09T13:18:03.055Z,5.28
2023-12-09T13:20:30.465Z,3.58
2023-12-09T13:22:58.073Z,3.78
2023-12-09T13:25:25.010Z,4.13
2023-12-09T13:27:57.395Z,5.05
2023-12-09T13:30:35.046Z,4.10
2023-12-09T13:33:11.243Z,3.47
2023-12-09T13:35:47.444Z,5.00
2023-12-09T13:38:34.177Z,6.10
2023-12-09T13:41:32.647Z,4.15
2023-12-09T13:44:09.912Z,5.00
2023-12-09T13:46:50.786Z,6.05
2023-12-09T13:49:27.693Z,4.85
2023-12-09T13:54:53.613Z,6.68
2023-12-09T13:57:41.695Z,18.73
2023-12-09T14:00:57.466Z,7.70
2023-12-09T14:03:40.748Z,8.25
2023-12-09T14:06:37.934Z,8.25
2023-12-09T14:12:08.117Z,6.95
2023-12-09T14:14:34.856Z,7.60
2023-12-09T14:17:01.924Z,10.35
2023-12-09T14:19:29.201Z,7.05
2023-12-09T14:21:56.105Z,8.10
2023-12-09T14:24:23.831Z,10.07
2023-12-09T14:26:50.858Z,7.43
2023-12-09T14:29:17.708Z,8.55
2023-12-09T14:31:44.471Z,9.00
2023-12-09T14:34:11.649Z,9.40
2023-12-09T14:36:39.534Z,13.55
2023-12-09T14:39:08.680Z,29.13
2023-12-09T14:41:35.511Z,28.17
2023-12-09T14:44:08.244Z,11.93
2023-12-09T14:46:36.067Z,19.50
2023-12-09T14:49:04.706Z,11.93
2023-12-09T14:51:40.518Z,11.43
2023-12-09T14:54:15.449Z,15.98
2023-12-09T14:56:44.024Z,14.32
2023-12-09T14:59:11.676Z,12.60
2023-12-09T15:01:38.501Z,14.05
2023-12-09T15:04:05.677Z,12.15
2023-12-09T15:06:33.484Z,14.93
2023-12-09T15:09:00.660Z,12.75
2023-12-09T15:11:27.855Z,11.88
2023-12-09T15:13:55.228Z,14.68
2023-12-09T15:16:22.323Z,17.80
2023-12-09T15:18:49.401Z,16.48
2023-12-09T15:21:16.807Z,10.57
2023-12-09T15:23:43.722Z,14.98
2023-12-09T15:26:11.757Z,15.90
2023-12-09T15:28:39.073Z,18.52
2023-12-09T15:31:06.023Z,17.30
2023-12-09T15:33:32.918Z,13.68
2023-12-09T15:35:59.985Z,12.48
2023-12-09T15:38:26.801Z,17.50
2023-12-09T15:40:54.129Z,16.48
2023-12-09T15:43:21.481Z,14.38
2023-12-09T15:45:48.318Z,11.52
2023-12-09T15:48:16.393Z,12.63
2023-12-09T15:50:43.455Z,13.35
2023-12-09T15:53:10.271Z,13.40
2023-12-09T15:55:38.503Z,9.98
2023-12-09T15:58:05.725Z,10.68
2023-12-09T16:00:34.800Z,7.10
2023-12-09T16:03:01.850Z,8.93
2023-12-09T16:05:28.686Z,11.82
2023-12-09T16:07:55.846Z,11.15
2023-12-09T16:10:22.670Z,13.63
2023-12-09T16:12:49.647Z,13.68
2023-12-09T16:15:16.647Z,9.68
2023-12-09T16:17:43.598Z,10.23
2023-12-09T16:20:12.144Z,11.60
2023-12-09T16:22:39.570Z,10.30
2023-12-09T16:25:07.124Z,8.88
2023-12-09T16:27:35.694Z,9.98
2023-12-09T16:30:04.865Z,10.48
2023-12-09T16:32:32.806Z,10.18
2023-12-09T16:34:59.943Z,10.57
2023-12-09T16:37:26.964Z,11.38
2023-12-09T16:39:54.023Z,9.05
2023-12-09T16:42:21.460Z,8.98
2023-12-09T16:44:48.817Z,9.73
2023-12-09T16:47:17.217Z,9.80
2023-12-09T16:49:44.420Z,7.85
2023-12-09T16:52:11.468Z,7.45
2023-12-09T16:54:38.510Z,8.38
2023-12-09T16:57:05.464Z,7.13
2023-12-09T16:59:32.436Z,9.85
2023-12-09T17:02:00.289Z,7.00
2023-12-09T17:04:27.769Z,6.53
2023-12-09T17:06:55.214Z,6.93
2023-12-09T17:09:22.739Z,5.85
2023-12-09T17:11:52.890Z,5.50
2023-12-09T17:14:20.730Z,3.90
2023-12-09T17:16:47.932Z,5.28
2023-12-09T17:19:14.996Z,3.20
2023-12-09T17:21:42.129Z,4.32
2023-12-09T17:24:09.024Z,6.95
2023-12-09T17:26:36.319Z,3.92
2023-12-09T17:29:03.502Z,4.15
2023-12-09T17:31:30.728Z,4.15
2023-12-09T17:33:57.857Z,4.70
2023-12-09T17:36:27.070Z,4.15
2023-12-09T17:38:56.759Z,3.55
2023-12-09T17:41:23.853Z,3.95
2023-12-09T17:43:50.662Z,4.20
2023-12-09T17:46:18.603Z,4.10
2023-12-09T17:48:45.475Z,3.30
2023-12-09T17:51:12.739Z,3.15
2023-12-09T17:53:39.625Z,2.72
2023-12-09T17:56:07.051Z,4.43
2023-12-09T17:58:33.952Z,3.75
2023-12-09T18:01:01.105Z,2.88
2023-12-09T18:03:28.153Z,5.30
2023-12-09T18:05:55.462Z,10.75
2023-12-09T18:08:22.576Z,2.45
2023-12-09T18:10:49.459Z,4.05
2023-12-09T18:13:16.325Z,5.72
2023-12-09T18:15:45.572Z,2.58
2023-12-09T18:18:13.227Z,1.70
2023-12-09T18:20:40.944Z,1.95
2023-12-09T18:23:07.884Z,2.33
2023-12-09T18:25:34.781Z,2.67
2023-12-09T18:28:05.621Z,2.25
2023-12-09T18:30:32.978Z,1.88
2023-12-09T18:33:00.602Z,2.28
2023-12-09T18:35:27.788Z,2.13
2023-12-09T18:37:54.990Z,3.17
2023-12-09T18:40:23.990Z,2.92
2023-12-09T18:42:52.352Z,8.63
2023-12-09T18:45:22.413Z,3.50
2023-12-09T18:47:51.646Z,2.53
2023-12-09T18:50:18.721Z,1.83
2023-12-09T18:52:46.288Z,3.35
2023-12-09T18:55:13.700Z,2.33
2023-12-09T18:57:41.376Z,3.15
2023-12-09T19:00:09.025Z,4.22
2023-12-09T19:02:36.629Z,4.53
2023-12-09T19:05:04.126Z,2.58
2023-12-09T19:07:31.648Z,2.33
2023-12-09T19:09:59.229Z,5.05
2023-12-09T19:12:28.182Z,2.30
2023-12-09T19:14:56.588Z,2.00
2023-12-09T19:17:24.760Z,3.60
2023-12-09T19:19:51.571Z,2.72
2023-12-09T19:22:18.620Z,3.35
2023-12-09T19:24:45.493Z,5.65
2023-12-09T19:27:12.378Z,7.60
2023-12-09T19:29:40.585Z,6.07
2023-12-09T19:32:08.073Z,20.25
2023-12-09T19:34:35.585Z,15.70
2023-12-09T19:37:02.519Z,14.80
2023-12-09T19:39:29.350Z,12.45
2023-12-09T19:41:56.160Z,5.78
2023-12-09T19:44:24.739Z,11.23
2023-12-09T19:46:52.244Z,6.18
2023-12-09T19:49:19.206Z,3.35
2023-12-09T19:51:46.271Z,5.40
2023-12-09T19:54:13.237Z,3.53
2023-12-09T19:56:40.123Z,3.63
2023-12-09T19:59:06.883Z,12.88
2023-12-09T20:01:33.707Z,4.25
2023-12-09T20:04:00.597Z,6.32
2023-12-09T20:06:29.154Z,4.45
2023-12-09T20:08:56.529Z,5.80
2023-12-09T20:11:23.480Z,7.25
2023-12-09T20:13:50.387Z,3.85
2023-12-09T20:16:17.270Z,7.13
2023-12-09T20:18:44.155Z,8.25
2023-12-09T20:21:11.040Z,6.72
2023-12-09T20:23:38.638Z,6.35
2023-12-09T20:26:05.841Z,7.65
2023-12-09T20:28:32.656Z,6.88
2023-12-09T20:31:01.042Z,7.32
2023-12-09T20:33:28.806Z,4.30
2023-12-09T20:35:55.834Z,6.65
2023-12-09T20:38:22.795Z,4.20
2023-12-09T20:40:49.770Z,4.10
2023-12-09T20:43:17.072Z,5.93
2023-12-09T20:45:44.077Z,5.70
2023-12-09T20:48:11.237Z,6.18
2023-12-09T20:50:38.173Z,5.05
2023-12-09T20:53:07.134Z,4.47
2023-12-09T20:55:34.067Z,3.65
2023-12-09T20:58:01.677Z,4.75
2023-12-09T21:00:28.610Z,4.90
2023-12-09T21:02:55.781Z,3.65
2023-12-09T21:05:23.044Z,4.18
2023-12-09T21:07:55.142Z,5.53
2023-12-09T21:10:23.110Z,5.32
2023-12-09T21:12:51.689Z,3.72
2023-12-09T21:15:19.178Z,6.65
2023-12-09T21:17:46.246Z,5.03
2023-12-09T21:20:13.354Z,3.40
2023-12-09T21:22:40.196Z,4.03
2023-12-09T21:25:07.645Z,3.38
2023-12-09T21:27:34.640Z,2.95
2023-12-09T21:30:01.516Z,2.95
2023-12-09T21:32:28.461Z,3.55
2023-12-09T21:34:56.298Z,2.75
2023-12-09T21:37:23.198Z,3.67
2023-12-09T21:39:50.164Z,5.70
2023-12-09T21:42:17.815Z,4.20
2023-12-09T21:44:45.983Z,4.35
2023-12-09T21:47:13.024Z,4.68
2023-12-09T21:49:42.829Z,3.10
2023-12-09T21:52:09.891Z,3.53
2023-12-09T21:54:36.739Z,3.00
2023-12-09T21:57:03.712Z,3.85
2023-12-09T21:59:30.573Z,4.05
2023-12-09T22:02:00.755Z,3.35
2023-12-09T22:04:28.726Z,3.63
2023-12-09T22:06:55.798Z,3.47
2023-12-09T22:09:22.717Z,2.90
2023-12-09T22:11:49.754Z,2.80
2023-12-09T22:14:16.546Z,2.83
2023-12-09T22:16:43.928Z,3.30
2023-12-09T22:19:11.409Z,2.60
2023-12-09T22:21:44.101Z,3.20
2023-12-09T22:24:11.582Z,2.20
2023-12-09T22:26:43.381Z,2.38
2023-12-09T22:29:10.514Z,7.20
2023-12-09T22:31:46.371Z,5.03
2023-12-09T22:34:13.576Z,5.50
2023-12-09T22:36:40.630Z,3.50
2023-12-09T22:39:09.217Z,3.72
2023-12-09T22:41:36.265Z,5.70
2023-12-09T22:44:04.073Z,6.47
2023-12-09T22:46:32.171Z,4.43
2023-12-09T22:48:59.947Z,1.98
2023-12-09T22:51:27.923Z,2.83
2023-12-09T22:53:55.121Z,5.05
2023-12-09T22:56:22.631Z,2.38
2023-12-09T22:58:50.809Z,5.55
2023-12-09T23:01:25.327Z,1.85
2023-12-09T23:03:52.819Z,8.18
2023-12-09T23:06:20.548Z,4.85
2023-12-09T23:08:48.300Z,6.93
2023-12-09T23:11:15.155Z,7.72
2023-12-09T23:13:42.069Z,5.40
2023-12-09T23:16:10.798Z,7.10
2023-12-09T23:18:42.065Z,9.00
2023-12-09T23:21:09.445Z,10.05
2023-12-09T23:23:37.214Z,15.32
2023-12-09T23:26:05.002Z,12.60
2023-12-09T23:28:32.971Z,8.27
2023-12-09T23:31:03.103Z,10.10
2023-12-09T23:33:31.591Z,11.23
2023-12-09T23:35:59.988Z,11.35
2023-12-09T23:38:28.180Z,11.68
2023-12-09T23:40:56.440Z,10.80
2023-12-09T23:43:24.665Z,12.07
2023-12-09T23:45:52.966Z,10.52
2023-12-09T23:48:21.670Z,11.07
2023-12-09T23:50:49.991Z,14.30
2023-12-09T23:53:19.609Z,10.68
2023-12-09T23:55:48.020Z,17.75
2023-12-09T23:58:16.309Z,17.40
